Latest Weather Observations for Darwin Harbour

IDD60801

Issued at 12:05 pm CST Friday 18 April 2014 (issued every 30 minutes, with the page automatically refreshed every 10 minutes)

About weather observations | Map of weather stations | Latest weather observations for NT | Other Formats
Station Details ID: 014072 Name: DARWIN NTC AWS Lat: -12.47 Lon: 130.85 Height: 0.0 m
Data from the previous 72 hours. | See also: Recent months for locations in Northern Territory
Date/Time
CST
Temp
°C
App
Temp
°C
Dew
Point
Rel
Hum
%
Delta-T
°C
Wind Press
QNH
hPa
Press
MSL
hPa
Rain
since 9 am
mm
Dir
 
Spd
km/h
Gust
km/h
Spd
kts
Gust
kts
18/12:00pm 29.5 - - - - E 19 24 10 13 1010.1 1010.0 -
18/11:30am 29.7 - - - - E 17 22 9 12 1010.5 1010.4 -
18/11:00am 29.6 - - - - ENE 13 20 7 11 1010.9 - -
18/10:30am 29.0 - - - - E 9 15 5 8 1011.2 1011.1 -
18/10:00am 28.4 - - - - ENE 13 20 7 11 1011.1 - -
18/09:30am 28.1 - - - - E 17 22 9 12 1011.1 1011.0 -
18/09:00am 27.6 - - - - E 17 22 9 12 1010.9 1010.8 -
18/08:30am 27.3 - - - - E 13 20 7 11 1010.8 1010.7 -
18/08:00am 26.8 - - - - E 11 17 6 9 1010.7 - -
18/07:30am 26.6 - - - - NE 9 15 5 8 1010.6 1010.5 -
18/07:00am 26.3 - - - - NE 7 15 4 8 1010.4 - -
18/06:30am 26.2 - - - - NE 7 17 4 9 1009.9 1009.8 -
18/06:00am 26.4 - - - - NE 11 19 6 10 1009.8 1009.7 -
18/05:30am 26.3 - - - - ENE 9 17 5 9 1009.5 1009.4 -
18/05:00am 25.6 - - - - ENE 15 28 8 15 1009.3 - -
18/04:30am 25.7 - - - - ENE 19 32 10 17 1009.2 1009.1 -
18/04:00am 27.2 - - - - E 9 15 5 8 1009.2 - -
18/03:30am 28.1 - - - - ESE 11 17 6 9 1009.1 1009.0 -
18/03:00am 27.7 - - - - ESE 9 13 5 7 1009.3 1009.2 -
18/02:30am 27.6 - - - - SE 4 6 2 3 1009.3 1009.2 -
18/02:00am 27.5 - - - - SE 15 20 8 11 1009.8 - -
18/01:30am 28.9 - - - - WSW 7 11 4 6 1010.0 1009.9 -
18/01:00am 28.9 - - - - W 11 15 6 8 1010.2 - -
18/12:30am 29.0 - - - - W 11 17 6 9 1010.4 1010.3 -
18/12:00am 28.9 - - - - W 15 19 8 10 1010.5 1010.4 -
 
Date/Time
CST
Temp
°C
App
Temp
°C
Dew
Point
Rel
Hum
%
Delta-T
°C
Wind Press
QNH
hPa
Press
MSL
hPa
Rain
since 9 am
mm
Dir
 
Spd
km/h
Gust
km/h
Spd
kts
Gust
kts
17/11:30pm 28.9 - - - - W 13 17 7 9 1010.4 1010.3 -
17/11:00pm 29.2 - - - - NW 7 11 4 6 1010.5 - -
17/10:30pm 29.3 - - - - NW 4 7 2 4 1010.7 1010.6 -
17/10:00pm 30.1 - - - - N 4 6 2 3 1010.8 - -
17/09:30pm 29.6 - - - - NE 6 9 3 5 1010.7 1010.6 -
17/09:00pm 29.8 - - - - NE 6 9 3 5 1010.5 1010.4 -
17/08:30pm 30.2 - - - - N 6 11 3 6 1010.2 1010.1 -
17/08:00pm 30.5 - - - - N 2 6 1 3 1009.9 - -
17/07:30pm 30.3 - - - - NNW 2 6 1 3 1009.4 1009.3 -
17/07:00pm 30.5 - - - - NNW 2 6 1 3 1009.1 - -
17/06:30pm 30.3 - - - - N 4 9 2 5 1008.6 1008.5 -
17/06:00pm 30.1 - - - - NNE 4 7 2 4 1008.0 1007.9 -
17/05:30pm 29.7 - - - - E 6 9 3 5 1007.7 1007.6 -
17/05:00pm 30.0 - - - - ENE 9 17 5 9 1007.6 - -
17/04:30pm 30.5 - - - - NNW 6 11 3 6 1007.6 1007.5 -
17/04:00pm 30.5 - - - - NNE 6 9 3 5 1007.5 - -
17/03:30pm 29.8 - - - - NNE 6 11 3 6 1007.5 1007.4 -
17/03:00pm 28.3 - - - - NNE 11 19 6 10 1008.0 1007.9 -
17/02:30pm 27.9 - - - - NE 17 35 9 19 1008.0 1007.9 -
17/02:00pm 30.3 - - - - W 15 20 8 11 1008.2 - -
17/01:30pm 29.7 - - - - W 11 15 6 8 1008.6 1008.5 -
17/01:00pm 29.6 - - - - W 11 17 6 9 1008.7 - -
17/12:30pm 29.8 - - - - WSW 7 11 4 6 1009.3 1009.2 -
17/12:00pm 30.0 - - - - SSE 6 9 3 5 1009.8 1009.7 -
17/11:30am 29.1 - - - - SE 7 9 4 5 1010.2 1010.1 -
17/11:00am 29.1 - - - - E 11 17 6 9 1010.7 - -
17/10:30am 28.2 - - - - E 7 11 4 6 1010.7 1010.6 -
17/10:00am 28.0 - - - - ESE 7 11 4 6 1010.7 - -
17/09:30am 28.0 - - - - SE 9 15 5 8 1010.6 1010.5 -
17/09:00am 27.9 - - - - SE 6 9 3 5 1010.2 1010.1 -
17/08:30am 28.0 - - - - SSE 7 11 4 6 1010.2 1010.1 -
17/08:00am 28.6 - - - - ESE 9 13 5 7 1010.0 - -
17/07:30am 28.5 - - - - ESE 9 13 5 7 1009.9 1009.8 -
17/07:00am 28.6 - - - - SSE 6 9 3 5 1009.7 - -
17/06:30am 27.9 - - - - WSW 7 9 4 5 1009.4 1009.3 -
17/06:00am 27.9 - - - - WSW 9 13 5 7 1009.1 1009.0 -
17/05:30am 28.0 - - - - WSW 9 13 5 7 1008.8 1008.7 -
17/05:00am 28.1 - - - - WSW 11 13 6 7 1008.6 - -
17/04:30am 28.5 - - - - W 11 15 6 8 1008.4 1008.3 -
17/04:00am 28.8 - - - - W 13 15 7 8 1008.3 - -
17/03:30am 28.9 - - - - W 11 17 6 9 1008.2 1008.1 -
17/03:00am 28.9 - - - - W 13 17 7 9 1008.3 1008.2 -
17/02:30am 28.6 - - - - WNW 9 15 5 8 1008.5 1008.4 -
17/02:00am 28.6 - - - - WNW 7 11 4 6 1008.7 - -
17/01:30am 28.7 - - - - WNW 6 7 3 4 1009.1 1009.0 -
17/01:00am 28.8 - - - - WNW 6 7 3 4 1009.5 - -
17/12:30am 28.9 - - - - WNW 6 9 3 5 1009.7 1009.6 -
17/12:00am 29.0 - - - - WNW 6 9 3 5 1009.7 1009.6 -
 
Date/Time
CST
Temp
°C
App
Temp
°C
Dew
Point
Rel
Hum
%
Delta-T
°C
Wind Press
QNH
hPa
Press
MSL
hPa
Rain
since 9 am
mm
Dir
 
Spd
km/h
Gust
km/h
Spd
kts
Gust
kts
16/11:30pm 29.3 - - - - WNW 7 11 4 6 1009.8 1009.7 -
16/11:00pm 29.6 - - - - W 7 11 4 6 1009.9 - -
16/10:30pm 29.8 - - - - WNW 6 7 3 4 1009.7 1009.6 -
16/10:00pm 30.3 - - - - NNW 7 13 4 7 1009.6 - -
16/09:30pm 30.5 - - - - NNW 7 11 4 6 1009.4 1009.3 -
16/09:00pm 31.0 - - - - NNW 4 7 2 4 1009.2 1009.1 -
16/08:30pm 30.8 - - - - NNW 4 6 2 3 1008.7 1008.6 -
16/08:00pm 31.0 - - - - N 4 9 2 5 1008.4 - -
16/07:30pm 31.0 - - - - NNW 4 9 2 5 1008.2 1008.1 -
16/07:00pm 31.4 - - - - NNW 4 11 2 6 1007.8 - -
16/06:30pm 31.4 - - - - NNW 7 13 4 7 1007.7 1007.6 -
16/06:00pm 31.4 - - - - NNW 11 19 6 10 1007.5 1007.4 -
16/05:30pm 31.5 - - - - WNW 9 15 5 8 1007.2 1007.1 -
16/05:00pm 31.7 - - - - WNW 7 11 4 6 1006.9 - -
16/04:30pm 33.0 - - - - WSW 4 11 2 6 1006.9 1006.8 -
16/04:00pm 32.5 - - - - SSW 4 7 2 4 1006.9 - -
16/03:30pm 32.6 - - - - E 9 15 5 8 1007.1 1007.0 -
16/03:00pm 32.5 - - - - E 13 17 7 9 1007.2 1007.1 -
16/02:30pm 32.8 - - - - E 15 20 8 11 1007.3 1007.2 -
16/02:00pm 32.8 - - - - E 15 22 8 12 1007.7 - -
16/01:30pm 32.1 - - - - ESE 11 17 6 9 1008.1 1008.0 -
16/01:00pm 31.8 - - - - SE 9 15 5 8 1008.6 - -
16/12:30pm 31.5 - - - - SE 9 13 5 7 1009.1 1009.0 -
16/12:00pm 31.0 - - - - ESE 11 15 6 8 1009.6 1009.5 -
16/11:30am 30.6 - - - - SE 13 15 7 8 1010.1 1010.0 -
16/11:00am 30.0 - - - - ESE 13 17 7 9 1010.6 - -
16/10:30am 29.7 - - - - SE 9 15 5 8 1011.0 1010.9 -
16/10:00am 28.5 - - - - S 9 13 5 7 1011.1 - -
16/09:30am 28.4 - - - - SSE 6 9 3 5 1011.1 1011.0 -
16/09:00am 28.3 - - - - SE 4 6 2 3 1010.9 1010.8 -
16/08:30am 27.9 - - - - SSE 7 11 4 6 1010.7 1010.6 -
16/08:00am 27.6 - - - - SSE 7 11 4 6 1010.5 - -
16/07:30am 27.6 - - - - SE 9 19 5 10 1010.4 1010.3 -
16/07:00am 27.6 - - - - SE 6 11 3 6 1010.1 - -
16/06:30am 27.4 - - - - SSE 7 9 4 5 1009.7 1009.6 -
16/06:00am 27.4 - - - - S 6 11 3 6 1009.6 1009.5 -
16/05:30am 27.5 - - - - SSE 7 9 4 5 1009.4 1009.3 -
16/05:00am 27.4 - - - - SE 7 15 4 8 1009.2 - -
16/04:30am 27.7 - - - - SSE 6 11 3 6 1009.2 1009.1 -
16/04:00am 28.3 - - - - CALM 0 2 0 1 1009.2 - -
16/03:30am 27.9 - - - - ENE 2 4 1 2 1009.3 1009.2 -
16/03:00am 27.9 - - - - NE 4 6 2 3 1009.3 1009.2 -
16/02:30am 28.6 - - - - NNE 4 6 2 3 1009.3 1009.2 -
16/02:00am 28.6 - - - - N 4 6 2 3 1009.5 - -
16/01:30am 28.4 - - - - NNE 4 6 2 3 1009.8 1009.7 -
16/01:00am 28.8 - - - - N 2 6 1 3 1010.1 - -
16/12:30am 28.8 - - - - NE 2 6 1 3 1010.2 1010.1 -
16/12:00am 28.9 - - - - CALM 0 2 0 1 1010.3 1010.2 -
 
Date/Time
CST
Temp
°C
App
Temp
°C
Dew
Point
Rel
Hum
%
Delta-T
°C
Wind Press
QNH
hPa
Press
MSL
hPa
Rain
since 9 am
mm
Dir
 
Spd
km/h
Gust
km/h
Spd
kts
Gust
kts
15/11:30pm 29.1 - - - - CALM 0 4 0 2 1010.4 1010.3 -
15/11:00pm 29.2 - - - - W 4 9 2 5 1010.4 - -
15/10:30pm 28.8 - - - - NNE 7 15 4 8 1010.2 1010.1 -
15/10:00pm 29.0 - - - - NNE 4 9 2 5 1010.1 - -
15/09:30pm 28.8 - - - - NE 7 13 4 7 1010.0 1009.9 -
15/09:00pm 28.9 - - - - NE 7 13 4 7 1010.0 1009.9 -
15/08:30pm 29.2 - - - - NE 9 13 5 7 1009.7 1009.6 -
15/08:00pm 29.4 - - - - NE 7 11 4 6 1009.4 - -
15/07:30pm 29.8 - - - - NNE 6 13 3 7 1008.9 1008.8 -
15/07:00pm 30.4 - - - - NNE 7 17 4 9 1008.4 - -
15/06:30pm 32.1 - - - - NE 2 7 1 4 1008.1 1008.0 -
15/06:00pm 32.7 - - - - ENE 7 13 4 7 1007.8 1007.7 -
15/05:30pm 32.7 - - - - E 11 17 6 9 1007.6 1007.5 -
15/05:00pm 32.5 - - - - ESE 15 20 8 11 1007.5 - -
15/04:30pm 32.6 - - - - ESE 13 17 7 9 1007.3 1007.2 -
15/04:00pm 32.2 - - - - ESE 11 17 6 9 1007.2 - -
15/03:30pm 32.1 - - - - E 17 22 9 12 1007.4 1007.3 -
15/03:00pm 31.7 - - - - E 17 26 9 14 1007.5 1007.4 -
15/02:30pm 31.8 - - - - ESE 20 26 11 14 1007.7 1007.6 -
15/02:00pm 31.4 - - - - ESE 19 26 10 14 1007.9 - -
15/01:30pm 31.1 - - - - E 20 28 11 15 1008.4 1008.3 -
15/01:00pm 30.9 - - - - ESE 24 28 13 15 1008.8 - -
15/12:30pm 30.8 - - - - E 19 24 10 13 1009.4 1009.3 -

Other Formats:

Comma delimited format used in spreadsheet applications
http://www.bom.gov.au/fwo/IDD60801/IDD60801.95122.axf

JavaScript Object Notation format (JSON) in row-major order
http://www.bom.gov.au/fwo/IDD60801/IDD60801.95122.json